Time;durP1;ratioP1;P1;durP2;ratioP2;P2;SDS_P1;SDS_P2;PMS_P1;PMS_P2;Temp;Humidity;BMP_temperature;BMP_pressure;BME280_temperature;BME280_humidity;BME280_pressure;Samples;Min_cycle;Max_cycle;Signal;HPM_P1;HPM_P2
2022/06/06 00:01:37;;;;;;;;;;;26.20;48.30;;;;;;5073719;28;19966;-63
2022/06/06 00:04:03;;;;;;;;;;;26.20;48.20;;;;;;5074441;28;19931;-63
2022/06/06 00:06:28;;;;;;;;;;;26.20;48.20;;;;;;5074478;28;19908;-63
2022/06/06 00:08:53;;;;;;;;;;;26.20;48.30;;;;;;5074745;28;19931;-63
2022/06/06 00:11:19;;;;;;;;;;;26.20;48.20;;;;;;5074176;28;19919;-63
2022/06/06 00:13:45;;;;;;;;;;;26.20;48.30;;;;;;5074267;28;19952;-63
2022/06/06 00:16:10;;;;;;;;;;;26.20;48.30;;;;;;5074109;28;19916;-64
2022/06/06 00:18:36;;;;;;;;;;;26.20;48.20;;;;;;5074305;28;19921;-63
2022/06/06 00:21:01;;;;;;;;;;;26.20;48.20;;;;;;5074316;28;19909;-63
2022/06/06 00:23:27;;;;;;;;;;;26.20;48.20;;;;;;5074191;28;19976;-63
2022/06/06 00:25:54;;;;;;;;;;;26.20;48.20;;;;;;5074216;28;19908;-63
2022/06/06 00:28:20;;;;;;;;;;;26.20;48.20;;;;;;5074274;28;19982;-63
2022/06/06 00:30:45;;;;;;;;;;;26.20;48.30;;;;;;5073283;28;20356;-63
2022/06/06 00:35:56;;;;;;;;;;;26.20;48.30;;;;;;5073015;28;19958;-63
2022/06/06 00:38:22;;;;;;;;;;;26.20;48.30;;;;;;5074146;28;19916;-64
2022/06/06 00:40:48;;;;;;;;;;;26.20;48.30;;;;;;5072640;28;19908;-64
2022/06/06 00:43:14;;;;;;;;;;;26.10;48.30;;;;;;5072578;28;20006;-63
2022/06/06 00:45:39;;;;;;;;;;;26.20;48.40;;;;;;5073862;28;19947;-63
2022/06/06 00:48:16;;;;;;;;;;;26.20;48.50;;;;;;5073675;28;19974;-63
2022/06/06 00:51:00;;;;;;;;;;;26.10;48.40;;;;;;5072788;28;19966;-63
2022/06/06 00:53:29;;;;;;;;;;;26.10;48.40;;;;;;5073538;28;20318;-63
2022/06/06 00:55:56;;;;;;;;;;;26.10;48.50;;;;;;5073583;28;20015;-63
2022/06/06 00:58:22;;;;;;;;;;;26.10;48.50;;;;;;5073546;28;20283;-63
2022/06/06 01:00:48;;;;;;;;;;;26.10;48.60;;;;;;5072391;28;19943;-63
2022/06/06 01:03:14;;;;;;;;;;;26.10;48.60;;;;;;5073302;28;19916;-63
2022/06/06 01:05:40;;;;;;;;;;;26.10;48.70;;;;;;5073540;28;20276;-64
2022/06/06 01:08:07;;;;;;;;;;;26.10;48.60;;;;;;5073686;28;19908;-64
2022/06/06 01:10:33;;;;;;;;;;;26.10;48.70;;;;;;5073302;28;19920;-64
2022/06/06 01:12:58;;;;;;;;;;;26.10;48.70;;;;;;5073327;28;19999;-64
2022/06/06 01:15:24;;;;;;;;;;;26.00;48.60;;;;;;5073244;28;19955;-64
2022/06/06 01:18:05;;;;;;;;;;;26.10;48.80;;;;;;5055482;28;20093;-63
2022/06/06 01:20:39;;;;;;;;;;;26.10;48.70;;;;;;5073487;28;20287;-64
2022/06/06 01:23:23;;;;;;;;;;;26.10;48.80;;;;;;5073071;28;20284;-64
2022/06/06 01:25:53;;;;;;;;;;;26.10;48.80;;;;;;5073231;28;19916;-64
2022/06/06 01:28:25;;;;;;;;;;;26.10;48.80;;;;;;5071993;28;19909;-63
2022/06/06 01:30:52;;;;;;;;;;;26.10;48.70;;;;;;5071857;28;20358;-64
2022/06/06 01:33:18;;;;;;;;;;;26.10;48.80;;;;;;5071952;28;19909;-64
2022/06/06 01:35:44;;;;;;;;;;;26.10;48.70;;;;;;5073345;28;19915;-64
2022/06/06 01:38:10;;;;;;;;;;;26.00;48.80;;;;;;5073416;28;20364;-64
2022/06/06 01:40:54;;;;;;;;;;;26.00;48.80;;;;;;5073166;28;19915;-64
2022/06/06 01:43:20;;;;;;;;;;;26.00;48.80;;;;;;5072985;28;20007;-64
2022/06/06 01:45:51;;;;;;;;;;;26.10;48.80;;;;;;5073143;28;19966;-63
2022/06/06 01:48:17;;;;;;;;;;;26.00;48.80;;;;;;5071746;28;19908;-64
2022/06/06 01:50:43;;;;;;;;;;;26.00;48.80;;;;;;5071611;28;19912;-64
2022/06/06 01:53:12;;;;;;;;;;;26.00;48.80;;;;;;5072922;28;20345;-64
2022/06/06 01:55:39;;;;;;;;;;;26.00;48.80;;;;;;5072918;28;19962;-64
2022/06/06 01:58:06;;;;;;;;;;;26.00;48.90;;;;;;5054962;28;20380;-64
2022/06/06 02:00:32;;;;;;;;;;;26.00;48.80;;;;;;5071621;28;19966;-64
2022/06/06 02:02:58;;;;;;;;;;;26.00;48.80;;;;;;5071595;28;19908;-63
2022/06/06 02:05:23;;;;;;;;;;;26.00;48.80;;;;;;5072753;28;20257;-64
2022/06/06 02:07:49;;;;;;;;;;;26.00;48.80;;;;;;5073067;28;19908;-64
2022/06/06 02:10:15;;;;;;;;;;;26.00;48.80;;;;;;5072571;28;20356;-64
2022/06/06 02:12:40;;;;;;;;;;;26.00;48.90;;;;;;5072660;28;20372;-64
2022/06/06 02:15:06;;;;;;;;;;;26.00;48.80;;;;;;5071380;28;19955;-64
2022/06/06 02:17:32;;;;;;;;;;;26.00;48.80;;;;;;5072510;28;19920;-64
2022/06/06 02:19:57;;;;;;;;;;;26.00;48.90;;;;;;5071490;28;19919;-64
2022/06/06 02:22:23;;;;;;;;;;;25.90;49.00;;;;;;5072601;28;19914;-64
2022/06/06 02:24:48;;;;;;;;;;;26.00;49.10;;;;;;5072710;28;19916;-64
2022/06/06 02:27:14;;;;;;;;;;;25.90;49.00;;;;;;5072543;28;19915;-64
2022/06/06 02:29:39;;;;;;;;;;;25.90;49.10;;;;;;5072585;28;20008;-64
2022/06/06 02:32:05;;;;;;;;;;;25.90;49.10;;;;;;5072462;28;19995;-64
2022/06/06 02:34:30;;;;;;;;;;;25.90;49.10;;;;;;5072577;28;19919;-64
2022/06/06 02:36:56;;;;;;;;;;;25.90;49.20;;;;;;5072545;28;20364;-64
2022/06/06 02:39:21;;;;;;;;;;;25.90;49.10;;;;;;5072833;28;19909;-64
2022/06/06 02:41:47;;;;;;;;;;;25.90;49.10;;;;;;5072398;28;20356;-64
2022/06/06 02:44:12;;;;;;;;;;;25.90;49.20;;;;;;5072373;28;20379;-64
2022/06/06 02:46:38;;;;;;;;;;;25.90;49.40;;;;;;5072585;28;19909;-64
2022/06/06 02:49:03;;;;;;;;;;;25.90;49.40;;;;;;5072532;28;19908;-64
2022/06/06 02:51:29;;;;;;;;;;;25.90;49.60;;;;;;5072166;28;19913;-64
2022/06/06 02:53:54;;;;;;;;;;;25.90;49.50;;;;;;5072824;28;19908;-64
2022/06/06 02:56:20;;;;;;;;;;;25.90;49.90;;;;;;5075949;28;19995;-64
2022/06/06 02:58:45;;;;;;;;;;;25.90;49.70;;;;;;5074942;28;19913;-64
2022/06/06 03:01:11;;;;;;;;;;;25.80;49.60;;;;;;5076169;28;19912;-64
2022/06/06 03:03:36;;;;;;;;;;;25.80;49.70;;;;;;5076031;28;19913;-63
2022/06/06 03:06:05;;;;;;;;;;;25.80;49.90;;;;;;5075776;28;19908;-64
2022/06/06 03:08:49;;;;;;;;;;;25.80;49.90;;;;;;5075961;28;20387;-64
2022/06/06 03:11:14;;;;;;;;;;;25.80;49.90;;;;;;5075464;28;19947;-64
2022/06/06 03:13:58;;;;;;;;;;;25.80;49.80;;;;;;5075556;28;19956;-64
2022/06/06 03:22:02;;;;;;;;;;;25.80;50.20;;;;;;5074551;28;19915;-64
2022/06/06 03:24:34;;;;;;;;;;;25.80;50.20;;;;;;5074226;28;19939;-63
2022/06/06 03:27:13;;;;;;;;;;;25.70;50.30;;;;;;5074222;28;20284;-64
2022/06/06 03:29:41;;;;;;;;;;;25.70;50.20;;;;;;5074115;28;20391;-63
2022/06/06 03:32:08;;;;;;;;;;;25.70;50.40;;;;;;5075054;28;19916;-64
2022/06/06 03:34:39;;;;;;;;;;;25.80;50.60;;;;;;5075640;28;19952;-64
2022/06/06 03:37:10;;;;;;;;;;;25.70;50.60;;;;;;5075216;28;19909;-63
2022/06/06 03:39:54;;;;;;;;;;;25.70;50.50;;;;;;5075748;28;20003;-64
2022/06/06 03:42:44;;;;;;;;;;;25.70;50.50;;;;;;5074978;28;19909;-64
2022/06/06 03:45:25;;;;;;;;;;;25.70;50.60;;;;;;5061148;28;19908;-64
2022/06/06 03:48:09;;;;;;;;;;;25.70;50.70;;;;;;5073763;28;20371;-63
2022/06/06 03:50:37;;;;;;;;;;;25.70;50.80;;;;;;5073506;28;20354;-64
2022/06/06 03:53:15;;;;;;;;;;;25.70;50.80;;;;;;5074773;28;20283;-64
2022/06/06 03:56:04;;;;;;;;;;;25.70;51.00;;;;;;5073678;28;19912;-64
2022/06/06 03:58:30;;;;;;;;;;;25.70;50.80;;;;;;5036907;28;20356;-64
2022/06/06 04:00:57;;;;;;;;;;;25.70;51.00;;;;;;5073552;28;20288;-64
2022/06/06 04:03:24;;;;;;;;;;;25.70;50.90;;;;;;5073242;28;19948;-64
2022/06/06 04:05:49;;;;;;;;;;;25.70;50.90;;;;;;5073733;28;19909;-64
2022/06/06 04:08:15;;;;;;;;;;;25.70;50.90;;;;;;5073549;28;19908;-64
2022/06/06 04:10:59;;;;;;;;;;;25.70;51.00;;;;;;5074589;28;20379;-63
2022/06/06 04:13:40;;;;;;;;;;;25.60;51.00;;;;;;5074399;28;19908;-64
2022/06/06 04:16:26;;;;;;;;;;;25.70;51.00;;;;;;5073046;28;19908;-64
2022/06/06 04:19:09;;;;;;;;;;;25.60;51.30;;;;;;5074403;28;19970;-64
2022/06/06 04:21:50;;;;;;;;;;;25.70;51.20;;;;;;5074196;28;19952;-64
2022/06/06 04:24:30;;;;;;;;;;;25.70;51.20;;;;;;5074184;28;19959;-64
2022/06/06 04:27:02;;;;;;;;;;;25.60;51.10;;;;;;5074344;28;19930;-64
2022/06/06 04:29:36;;;;;;;;;;;25.60;51.10;;;;;;5072871;28;19908;-64
2022/06/06 04:32:14;;;;;;;;;;;25.60;51.20;;;;;;5074018;28;19959;-64
2022/06/06 04:34:43;;;;;;;;;;;25.60;51.00;;;;;;5074030;28;20391;-64
2022/06/06 04:37:17;;;;;;;;;;;25.60;51.10;;;;;;5073996;28;20368;-64
2022/06/06 04:39:46;;;;;;;;;;;25.60;51.10;;;;;;5073010;28;20395;-64
2022/06/06 04:42:30;;;;;;;;;;;25.60;51.30;;;;;;5072586;28;19912;-63
2022/06/06 04:44:59;;;;;;;;;;;25.60;51.00;;;;;;5073801;28;19909;-64
2022/06/06 04:47:30;;;;;;;;;;;25.60;51.10;;;;;;5073666;28;19915;-64
2022/06/06 04:49:55;;;;;;;;;;;25.50;51.30;;;;;;5073711;28;19908;-64
2022/06/06 04:52:21;;;;;;;;;;;25.60;51.30;;;;;;5073527;28;19934;-64
2022/06/06 04:54:46;;;;;;;;;;;25.50;51.00;;;;;;5072444;28;19963;-64
2022/06/06 04:57:12;;;;;;;;;;;25.50;51.30;;;;;;5072235;28;19908;-64
2022/06/06 04:59:37;;;;;;;;;;;25.50;51.30;;;;;;5072192;28;19908;-64
2022/06/06 05:02:04;;;;;;;;;;;25.60;51.30;;;;;;5072392;28;20003;-64
2022/06/06 05:04:29;;;;;;;;;;;25.50;51.30;;;;;;5073435;28;20261;-64
2022/06/06 05:07:06;;;;;;;;;;;25.50;51.40;;;;;;5073502;28;19915;-64
2022/06/06 05:09:50;;;;;;;;;;;25.50;51.40;;;;;;5080467;28;19909;-64
2022/06/06 05:12:36;;;;;;;;;;;25.50;51.50;;;;;;5073869;28;19916;-64
2022/06/06 05:15:20;;;;;;;;;;;25.50;51.40;;;;;;5072110;28;19913;-64
2022/06/06 05:18:04;;;;;;;;;;;25.50;51.40;;;;;;5073010;28;19920;-64
2022/06/06 05:20:48;;;;;;;;;;;25.40;51.40;;;;;;5073209;28;19909;-63
2022/06/06 05:23:29;;;;;;;;;;;25.50;51.50;;;;;;5071871;28;19912;-64
2022/06/06 05:26:00;;;;;;;;;;;25.40;51.30;;;;;;5073215;28;19908;-64
2022/06/06 05:28:30;;;;;;;;;;;25.40;51.40;;;;;;5073115;28;20032;-64
2022/06/06 05:30:56;;;;;;;;;;;25.40;51.40;;;;;;5055195;28;19913;-64
2022/06/06 05:33:25;;;;;;;;;;;25.40;51.40;;;;;;5055100;28;19916;-63
2022/06/06 05:35:59;;;;;;;;;;;25.40;51.40;;;;;;5073091;28;19909;-64
2022/06/06 05:38:25;;;;;;;;;;;25.40;51.40;;;;;;5072181;28;20003;-64
2022/06/06 05:40:56;;;;;;;;;;;25.40;51.50;;;;;;5073119;28;19955;-64
2022/06/06 05:43:40;;;;;;;;;;;25.40;51.40;;;;;;5073064;28;20280;-64
2022/06/06 05:46:13;;;;;;;;;;;25.40;51.50;;;;;;5071732;28;19914;-64
2022/06/06 05:48:43;;;;;;;;;;;25.40;51.50;;;;;;5071824;28;19909;-64
2022/06/06 05:51:23;;;;;;;;;;;25.40;51.50;;;;;;5072859;28;20015;-64
2022/06/06 05:53:51;;;;;;;;;;;25.40;51.60;;;;;;5071767;28;19909;-64
2022/06/06 05:56:35;;;;;;;;;;;25.40;51.50;;;;;;5072864;28;20384;-64
2022/06/06 05:59:03;;;;;;;;;;;25.30;51.50;;;;;;5072888;28;20065;-64
2022/06/06 06:01:38;;;;;;;;;;;25.30;51.50;;;;;;5072786;28;19916;-64
2022/06/06 06:04:09;;;;;;;;;;;25.30;51.70;;;;;;5072719;28;19919;-63
2022/06/06 06:06:47;;;;;;;;;;;25.30;51.60;;;;;;5072844;28;20039;-64
2022/06/06 06:09:31;;;;;;;;;;;25.30;51.60;;;;;;5073072;28;19930;-64
2022/06/06 06:12:01;;;;;;;;;;;25.30;51.60;;;;;;5072605;28;20376;-64
2022/06/06 06:14:35;;;;;;;;;;;25.30;51.60;;;;;;5072760;28;19912;-64
2022/06/06 06:17:01;;;;;;;;;;;25.30;51.70;;;;;;5072625;28;19976;-64
2022/06/06 06:19:38;;;;;;;;;;;25.30;51.60;;;;;;5071591;28;19912;-64
2022/06/06 06:22:04;;;;;;;;;;;25.20;51.50;;;;;;5071679;28;20372;-64
2022/06/06 06:24:30;;;;;;;;;;;25.30;51.60;;;;;;5071376;28;19908;-64
2022/06/06 06:26:56;;;;;;;;;;;25.30;51.60;;;;;;5072793;28;20368;-64
2022/06/06 06:29:21;;;;;;;;;;;25.30;51.60;;;;;;5073903;28;19919;-63
2022/06/06 06:31:49;;;;;;;;;;;25.30;52.30;;;;;;5076286;28;19913;-64
2022/06/06 06:34:24;;;;;;;;;;;25.30;51.70;;;;;;5076276;28;20004;-64
2022/06/06 06:36:52;;;;;;;;;;;25.20;51.50;;;;;;5076208;28;19915;-64
2022/06/06 06:39:36;;;;;;;;;;;25.30;51.60;;;;;;5055272;28;19913;-64
2022/06/06 06:42:21;;;;;;;;;;;25.20;51.60;;;;;;5056103;28;19909;-64
2022/06/06 06:45:07;;;;;;;;;;;25.20;51.80;;;;;;5056166;28;19915;-64
2022/06/06 06:47:33;;;;;;;;;;;25.20;51.80;;;;;;5056349;28;19908;-64
2022/06/06 06:50:06;;;;;;;;;;;25.20;51.80;;;;;;5056050;28;20284;-64
2022/06/06 06:52:49;;;;;;;;;;;25.10;51.80;;;;;;5071507;28;20284;-64
2022/06/06 06:55:22;;;;;;;;;;;25.10;52.00;;;;;;5071440;28;20269;-64
2022/06/06 06:57:57;;;;;;;;;;;25.10;52.00;;;;;;5071427;28;20015;-64
2022/06/06 07:00:22;;;;;;;;;;;25.10;51.90;;;;;;5055780;28;20360;-64
2022/06/06 07:08:49;;;;;;;;;;;25.10;51.90;;;;;;5072008;28;20441;-64
2022/06/06 07:11:20;;;;;;;;;;;25.10;52.00;;;;;;5087967;28;19913;-64
2022/06/06 07:13:59;;;;;;;;;;;25.10;51.90;;;;;;5054238;28;20003;-64
2022/06/06 07:16:26;;;;;;;;;;;25.10;51.70;;;;;;5054101;28;20369;-64
2022/06/06 07:19:06;;;;;;;;;;;25.10;51.90;;;;;;5055568;28;19913;-64
2022/06/06 07:21:32;;;;;;;;;;;25.10;51.70;;;;;;5055461;28;19912;-64
2022/06/06 07:23:59;;;;;;;;;;;25.10;51.70;;;;;;5055638;28;19955;-64
2022/06/06 07:26:24;;;;;;;;;;;25.10;51.70;;;;;;5087712;28;20400;-64
2022/06/06 07:28:50;;;;;;;;;;;25.10;51.70;;;;;;5055308;28;19909;-64
2022/06/06 07:31:16;;;;;;;;;;;25.10;51.60;;;;;;5087654;28;19919;-64
2022/06/06 07:33:41;;;;;;;;;;;25.10;51.60;;;;;;5055189;28;20387;-64
2022/06/06 07:36:09;;;;;;;;;;;25.10;51.60;;;;;;5055257;28;20607;-64
2022/06/06 07:38:53;;;;;;;;;;;25.10;51.60;;;;;;5063847;28;19913;-63
2022/06/06 07:41:19;;;;;;;;;;;25.10;51.90;;;;;;5075073;28;19909;-64
2022/06/06 07:44:04;;;;;;;;;;;25.10;51.90;;;;;;5075105;28;19909;-64
2022/06/06 07:46:33;;;;;;;;;;;25.00;51.90;;;;;;5074610;28;19908;-63
2022/06/06 07:49:05;;;;;;;;;;;25.00;51.90;;;;;;5074836;28;20002;-63
2022/06/06 07:51:33;;;;;;;;;;;25.00;51.80;;;;;;5074860;28;19961;-63
2022/06/06 07:54:05;;;;;;;;;;;25.00;51.80;;;;;;5074946;28;19908;-63
2022/06/06 07:56:49;;;;;;;;;;;25.00;51.80;;;;;;5074740;28;19913;-63
2022/06/06 07:59:21;;;;;;;;;;;25.00;51.80;;;;;;5074747;28;20360;-63
2022/06/06 08:01:55;;;;;;;;;;;25.00;51.80;;;;;;5074743;28;19909;-63
2022/06/06 08:04:23;;;;;;;;;;;25.00;51.70;;;;;;5074763;28;19962;-63
2022/06/06 08:07:15;;;;;;;;;;;25.10;51.80;;;;;;5074685;28;20365;-63
2022/06/06 08:09:46;;;;;;;;;;;25.00;51.70;;;;;;5043487;28;19915;-63
2022/06/06 08:12:18;;;;;;;;;;;25.00;51.80;;;;;;5074372;28;19991;-63
2022/06/06 08:14:44;;;;;;;;;;;25.00;51.70;;;;;;5090063;28;19908;-63
2022/06/06 08:17:27;;;;;;;;;;;25.00;51.60;;;;;;5072932;28;19920;-63
2022/06/06 08:19:56;;;;;;;;;;;25.00;51.60;;;;;;5074334;28;20360;-63
2022/06/06 08:22:22;;;;;;;;;;;25.00;51.80;;;;;;5089971;28;19916;-63
2022/06/06 08:24:48;;;;;;;;;;;25.00;51.70;;;;;;5089837;28;19959;-63
2022/06/06 08:27:14;;;;;;;;;;;25.10;51.70;;;;;;5090103;28;20311;-63
2022/06/06 08:29:40;;;;;;;;;;;25.10;51.60;;;;;;5074140;28;19909;-63
2022/06/06 08:32:05;;;;;;;;;;;25.00;51.50;;;;;;5089611;28;19958;-63
2022/06/06 08:34:32;;;;;;;;;;;25.00;51.60;;;;;;5089815;28;19913;-63
2022/06/06 08:36:57;;;;;;;;;;;25.00;51.70;;;;;;5074008;28;20398;-63
2022/06/06 08:39:25;;;;;;;;;;;25.00;51.70;;;;;;5074154;28;19939;-63
2022/06/06 08:42:10;;;;;;;;;;;24.90;51.60;;;;;;5074138;28;19920;-63
2022/06/06 08:44:35;;;;;;;;;;;25.00;51.60;;;;;;5073800;28;19918;-63
2022/06/06 08:47:02;;;;;;;;;;;25.00;51.60;;;;;;5073844;28;20291;-63
2022/06/06 08:52:33;;;;;;;;;;;25.00;51.40;;;;;;5079786;28;20002;-63
2022/06/06 08:54:59;;;;;;;;;;;25.00;51.30;;;;;;5072502;28;19995;-63
2022/06/06 08:57:24;;;;;;;;;;;25.10;51.30;;;;;;5072310;28;19963;-63
2022/06/06 09:00:10;;;;;;;;;;;25.10;51.30;;;;;;5073607;28;20316;-63
2022/06/06 09:02:57;;;;;;;;;;;25.10;51.30;;;;;;5055562;28;19989;-63
2022/06/06 09:05:30;;;;;;;;;;;25.10;51.20;;;;;;5072263;28;19908;-63
2022/06/06 09:08:03;;;;;;;;;;;25.10;51.20;;;;;;5072513;28;20786;-63
2022/06/06 09:10:48;;;;;;;;;;;25.10;51.30;;;;;;5072402;28;19912;-65
2022/06/06 09:13:26;;;;;;;;;;;25.10;51.30;;;;;;5073306;28;19915;-63
2022/06/06 09:15:51;;;;;;;;;;;25.00;51.20;;;;;;5072142;28;19913;-63
2022/06/06 09:18:29;;;;;;;;;;;25.10;51.20;;;;;;5073212;28;19927;-63
2022/06/06 09:21:13;;;;;;;;;;;25.10;51.10;;;;;;5072239;28;19947;-63
2022/06/06 09:23:41;;;;;;;;;;;25.10;51.10;;;;;;5073242;28;19908;-63
2022/06/06 09:26:18;;;;;;;;;;;25.10;51.00;;;;;;5073334;28;20373;-63
2022/06/06 09:28:44;;;;;;;;;;;25.10;51.00;;;;;;5073307;28;20007;-64
2022/06/06 09:31:34;;;;;;;;;;;25.10;50.90;;;;;;5072995;28;19995;-63
2022/06/06 09:34:19;;;;;;;;;;;25.10;50.90;;;;;;5079944;28;19909;-63
2022/06/06 09:36:44;;;;;;;;;;;25.10;51.10;;;;;;5073214;28;19939;-63
2022/06/06 09:39:21;;;;;;;;;;;25.10;51.10;;;;;;5073374;28;19995;-63
2022/06/06 09:41:56;;;;;;;;;;;25.10;51.10;;;;;;5055184;28;19908;-63
2022/06/06 09:44:25;;;;;;;;;;;25.10;51.00;;;;;;5073115;28;19961;-63
2022/06/06 09:47:04;;;;;;;;;;;25.10;50.90;;;;;;5073071;28;19913;-63
2022/06/06 09:49:47;;;;;;;;;;;25.10;50.90;;;;;;5071808;28;19962;-63
2022/06/06 09:52:12;;;;;;;;;;;25.10;50.90;;;;;;5071692;28;19917;-63
2022/06/06 10:00:20;;;;;;;;;;;25.00;51.10;;;;;;5071932;28;19965;-63
2022/06/06 10:02:49;;;;;;;;;;;25.10;51.10;;;;;;5074725;28;19935;-63
2022/06/06 10:05:21;;;;;;;;;;;25.10;51.00;;;;;;5076919;28;19908;-63
2022/06/06 10:07:46;;;;;;;;;;;25.10;51.10;;;;;;5076268;28;19908;-63
2022/06/06 10:10:31;;;;;;;;;;;25.10;51.10;;;;;;5076942;28;19908;-63
2022/06/06 10:13:18;;;;;;;;;;;25.10;50.90;;;;;;5077100;28;19916;-63
2022/06/06 10:15:46;;;;;;;;;;;25.10;51.00;;;;;;5076705;28;19908;-63
2022/06/06 10:18:18;;;;;;;;;;;25.00;51.00;;;;;;5076521;28;19932;-63
2022/06/06 10:20:57;;;;;;;;;;;25.00;51.00;;;;;;5075473;28;19908;-63
2022/06/06 10:23:31;;;;;;;;;;;25.00;51.00;;;;;;5076510;28;19915;-63
2022/06/06 10:25:59;;;;;;;;;;;25.10;51.10;;;;;;5076603;28;19916;-63
2022/06/06 10:28:32;;;;;;;;;;;25.10;51.00;;;;;;5076447;28;20340;-63
2022/06/06 10:31:02;;;;;;;;;;;25.10;50.90;;;;;;5075145;28;19919;-63
2022/06/06 10:33:46;;;;;;;;;;;25.20;51.20;;;;;;5075147;28;20363;-63
2022/06/06 10:36:23;;;;;;;;;;;25.20;50.80;;;;;;5076359;28;19916;-63
2022/06/06 10:39:07;;;;;;;;;;;25.20;50.90;;;;;;5076692;28;19915;-63
2022/06/06 10:41:42;;;;;;;;;;;25.30;51.20;;;;;;5076271;28;19915;-63
2022/06/06 10:44:26;;;;;;;;;;;25.20;51.10;;;;;;5075285;28;19908;-62
2022/06/06 10:46:55;;;;;;;;;;;25.20;51.10;;;;;;5076094;28;19912;-62
2022/06/06 10:49:24;;;;;;;;;;;25.20;51.20;;;;;;5076070;28;19908;-63
2022/06/06 10:52:02;;;;;;;;;;;25.20;51.10;;;;;;5074815;28;19919;-63
2022/06/06 10:54:40;;;;;;;;;;;25.30;50.80;;;;;;5075974;28;20057;-63
2022/06/06 10:57:26;;;;;;;;;;;25.30;50.80;;;;;;5075961;28;19908;-63
2022/06/06 11:00:05;;;;;;;;;;;25.30;50.90;;;;;;5034863;28;19908;-63
2022/06/06 11:02:40;;;;;;;;;;;25.40;50.90;;;;;;5075914;28;19908;-63
2022/06/06 11:05:17;;;;;;;;;;;25.30;50.90;;;;;;5075527;28;19912;-63
2022/06/06 11:07:58;;;;;;;;;;;25.30;50.90;;;;;;5074864;28;19951;-63
2022/06/06 11:10:26;;;;;;;;;;;25.30;50.70;;;;;;5075622;28;19912;-63
2022/06/06 11:12:51;;;;;;;;;;;25.40;50.60;;;;;;5074383;28;19962;-63
2022/06/06 11:15:17;;;;;;;;;;;25.30;50.50;;;;;;5074845;28;19909;-63
2022/06/06 11:18:03;;;;;;;;;;;25.30;50.50;;;;;;5074075;28;20027;-63
2022/06/06 11:20:45;;;;;;;;;;;25.30;50.40;;;;;;5074306;28;19912;-63
2022/06/06 11:23:40;;;;;;;;;;;25.30;50.30;;;;;;5074278;28;20524;-63
2022/06/06 11:26:13;;;;;;;;;;;25.40;50.30;;;;;;5058217;28;20016;-62
2022/06/06 11:29:01;;;;;;;;;;;25.30;50.40;;;;;;5075456;28;19909;-63
2022/06/06 11:31:36;;;;;;;;;;;25.20;50.40;;;;;;5074316;28;20365;-63
2022/06/06 11:34:20;;;;;;;;;;;25.10;50.50;;;;;;5057859;28;20209;-63
2022/06/06 11:36:45;;;;;;;;;;;25.20;50.60;;;;;;5075487;28;19908;-63
2022/06/06 11:39:30;;;;;;;;;;;25.30;50.90;;;;;;5075307;28;19934;-62
2022/06/06 11:42:14;;;;;;;;;;;25.30;51.20;;;;;;5075098;28;19909;-63
2022/06/06 11:45:02;;;;;;;;;;;25.30;51.00;;;;;;5075034;28;20330;-63
2022/06/06 11:47:36;;;;;;;;;;;25.30;51.10;;;;;;5064083;28;19955;-63
2022/06/06 11:50:02;;;;;;;;;;;25.40;51.00;;;;;;5073758;28;20365;-63
2022/06/06 11:52:50;;;;;;;;;;;25.40;51.40;;;;;;5075101;28;19920;-63
2022/06/06 11:55:35;;;;;;;;;;;25.40;50.60;;;;;;5073604;28;20371;-63
2022/06/06 11:58:19;;;;;;;;;;;25.40;50.50;;;;;;5074872;28;19909;-63
2022/06/06 12:01:03;;;;;;;;;;;25.40;50.90;;;;;;5074800;28;19909;-63
2022/06/06 12:03:40;;;;;;;;;;;25.30;51.00;;;;;;5074659;28;19913;-63
2022/06/06 12:06:13;;;;;;;;;;;25.30;51.20;;;;;;5073739;28;19912;-63
2022/06/06 12:09:05;;;;;;;;;;;25.30;51.20;;;;;;5074021;28;19908;-63
2022/06/06 12:11:49;;;;;;;;;;;25.30;51.20;;;;;;5035278;28;20066;-63
2022/06/06 12:14:38;;;;;;;;;;;25.30;51.10;;;;;;5074374;28;19909;-63
2022/06/06 12:17:22;;;;;;;;;;;25.30;50.70;;;;;;5073129;28;20007;-63
2022/06/06 12:19:50;;;;;;;;;;;25.30;50.50;;;;;;5074603;28;20011;-64
2022/06/06 12:22:20;;;;;;;;;;;25.40;50.30;;;;;;5074356;28;19931;-63
2022/06/06 12:24:57;;;;;;;;;;;25.40;50.00;;;;;;5073055;28;19909;-63
2022/06/06 12:27:31;;;;;;;;;;;25.50;49.60;;;;;;5072120;28;19932;-63
2022/06/06 12:30:18;;;;;;;;;;;25.50;49.90;;;;;;5072970;28;19934;-63
2022/06/06 12:32:52;;;;;;;;;;;25.50;49.80;;;;;;5073219;28;19919;-63
2022/06/06 12:35:31;;;;;;;;;;;25.50;49.40;;;;;;5073016;28;19987;-63
2022/06/06 12:38:01;;;;;;;;;;;25.50;49.60;;;;;;5073335;28;19936;-63
2022/06/06 12:40:28;;;;;;;;;;;25.60;49.80;;;;;;5072679;28;19908;-63
2022/06/06 12:43:26;;;;;;;;;;;25.60;49.70;;;;;;5072758;28;19908;-63
2022/06/06 12:45:51;;;;;;;;;;;25.60;49.10;;;;;;5029439;28;19913;-63
2022/06/06 12:48:33;;;;;;;;;;;25.60;49.40;;;;;;5090693;27;19913;-63
2022/06/06 12:51:18;;;;;;;;;;;25.60;49.30;;;;;;5123471;28;19916;-63
2022/06/06 12:53:59;;;;;;;;;;;25.60;49.20;;;;;;5090532;28;20311;-63
2022/06/06 12:56:27;;;;;;;;;;;25.60;49.00;;;;;;5090511;28;19916;-63
2022/06/06 12:59:04;;;;;;;;;;;25.60;48.90;;;;;;5090512;28;19946;-63
2022/06/06 13:01:37;;;;;;;;;;;25.60;48.90;;;;;;5106185;28;20372;-63
2022/06/06 13:04:06;;;;;;;;;;;25.70;49.00;;;;;;5112982;28;19908;-63
2022/06/06 13:06:31;;;;;;;;;;;25.70;49.00;;;;;;5070014;28;20051;-63
2022/06/06 13:09:08;;;;;;;;;;;25.70;49.00;;;;;;5070021;28;20019;-63
2022/06/06 13:11:33;;;;;;;;;;;25.70;49.00;;;;;;5070027;28;20050;-63
2022/06/06 13:13:59;;;;;;;;;;;25.70;49.10;;;;;;5070078;28;19942;-63
2022/06/06 13:16:24;;;;;;;;;;;25.70;49.40;;;;;;5069887;28;20002;-63
2022/06/06 13:19:03;;;;;;;;;;;25.70;49.40;;;;;;5069815;28;20288;-63
2022/06/06 13:21:42;;;;;;;;;;;25.70;49.30;;;;;;5068565;28;19909;-63
2022/06/06 13:24:07;;;;;;;;;;;25.70;49.40;;;;;;5069791;28;19909;-63
2022/06/06 13:26:46;;;;;;;;;;;25.60;49.60;;;;;;5069582;28;19912;-63
2022/06/06 13:29:25;;;;;;;;;;;25.60;49.70;;;;;;5069760;28;19908;-63
2022/06/06 13:31:54;;;;;;;;;;;25.60;49.80;;;;;;5069683;28;20369;-63
2022/06/06 13:34:31;;;;;;;;;;;25.60;49.70;;;;;;5069663;28;19910;-63
2022/06/06 13:37:00;;;;;;;;;;;25.60;49.80;;;;;;5069560;28;20053;-62
2022/06/06 13:39:25;;;;;;;;;;;25.60;49.80;;;;;;5068107;28;19916;-63
2022/06/06 13:42:05;;;;;;;;;;;25.60;49.70;;;;;;5069418;28;19921;-63
2022/06/06 13:44:34;;;;;;;;;;;25.60;49.80;;;;;;5067927;28;19915;-63
2022/06/06 13:47:18;;;;;;;;;;;25.60;49.80;;;;;;5077955;28;20379;-63
2022/06/06 13:49:53;;;;;;;;;;;25.70;49.70;;;;;;5089521;28;20550;-63
2022/06/06 13:52:21;;;;;;;;;;;25.70;49.70;;;;;;5089433;28;19908;-63
2022/06/06 13:54:47;;;;;;;;;;;25.70;49.70;;;;;;5089388;28;19919;-63
2022/06/06 13:57:23;;;;;;;;;;;25.70;50.10;;;;;;5089352;28;19908;-63
2022/06/06 14:00:04;;;;;;;;;;;25.80;49.40;;;;;;5058105;28;20368;-63
2022/06/06 14:02:48;;;;;;;;;;;25.80;49.10;;;;;;5075951;28;19912;-63
2022/06/06 14:05:32;;;;;;;;;;;25.80;49.10;;;;;;5075632;28;19919;-63
2022/06/06 14:08:20;;;;;;;;;;;25.80;49.10;;;;;;5057544;28;19912;-63
2022/06/06 14:10:57;;;;;;;;;;;25.80;49.20;;;;;;5082365;28;20003;-63
2022/06/06 14:13:38;;;;;;;;;;;25.80;49.70;;;;;;5057878;28;19952;-63
2022/06/06 14:16:13;;;;;;;;;;;25.80;49.10;;;;;;5057591;28;20288;-63
2022/06/06 14:18:39;;;;;;;;;;;25.80;48.80;;;;;;5074252;28;19908;-63
2022/06/06 14:21:04;;;;;;;;;;;25.80;48.30;;;;;;5075574;28;20291;-63
2022/06/06 14:23:30;;;;;;;;;;;25.80;48.70;;;;;;5075459;28;20007;-63
2022/06/06 14:25:57;;;;;;;;;;;25.90;48.00;;;;;;5075432;28;19912;-63
2022/06/06 14:28:23;;;;;;;;;;;25.90;47.80;;;;;;5075261;28;19919;-63
2022/06/06 14:30:49;;;;;;;;;;;25.90;47.10;;;;;;5057312;28;19909;-63
2022/06/06 14:33:34;;;;;;;;;;;25.90;47.30;;;;;;5057417;28;19908;-63
2022/06/06 14:36:19;;;;;;;;;;;25.90;47.20;;;;;;5075190;28;20309;-63
2022/06/06 14:38:45;;;;;;;;;;;25.90;46.90;;;;;;5075143;28;19909;-63
2022/06/06 14:41:14;;;;;;;;;;;25.90;46.80;;;;;;5090566;28;20249;-63
2022/06/06 14:43:48;;;;;;;;;;;25.90;46.60;;;;;;5075005;28;19908;-63
2022/06/06 14:46:13;;;;;;;;;;;25.90;46.60;;;;;;5074629;28;19912;-63
2022/06/06 14:48:43;;;;;;;;;;;25.90;46.30;;;;;;5074953;28;19908;-63
2022/06/06 14:51:09;;;;;;;;;;;26.00;46.30;;;;;;5073604;28;20356;-63
2022/06/06 14:53:45;;;;;;;;;;;25.90;46.60;;;;;;5056933;28;19909;-63
2022/06/06 14:56:19;;;;;;;;;;;25.90;46.70;;;;;;5056885;28;19908;-63
2022/06/06 14:58:53;;;;;;;;;;;25.90;46.40;;;;;;5056826;28;20019;-63
2022/06/06 15:01:19;;;;;;;;;;;25.90;46.90;;;;;;5056929;28;19963;-63
2022/06/06 15:03:45;;;;;;;;;;;25.90;47.20;;;;;;5056747;28;20326;-63
2022/06/06 15:06:12;;;;;;;;;;;25.90;48.00;;;;;;5056576;28;19965;-63
2022/06/06 15:08:42;;;;;;;;;;;25.90;47.20;;;;;;5074381;28;19915;-63
2022/06/06 15:11:12;;;;;;;;;;;25.90;47.20;;;;;;5062315;28;19908;-63